createdAt,value
2018-12-13T00:00:08.045Z,958.34
2018-12-13T00:01:08.025Z,958.33
2018-12-13T00:02:08.006Z,958.36
2018-12-13T00:03:07.985Z,958.35
2018-12-13T00:04:07.967Z,958.42
2018-12-13T00:05:07.945Z,958.39
2018-12-13T00:06:07.925Z,958.43
2018-12-13T00:07:07.906Z,958.42
2018-12-13T00:08:07.884Z,958.39
2018-12-13T00:09:07.864Z,958.39
2018-12-13T00:10:07.843Z,958.39
2018-12-13T00:11:07.823Z,958.44
2018-12-13T00:12:07.804Z,958.49
2018-12-13T00:13:07.783Z,958.41
2018-12-13T00:14:07.768Z,958.41
2018-12-13T00:15:07.742Z,958.39
2018-12-13T00:16:07.722Z,958.4
2018-12-13T00:17:07.701Z,958.33
2018-12-13T00:18:07.681Z,958.39
2018-12-13T00:19:07.662Z,958.41
2018-12-13T00:20:07.642Z,958.41
2018-12-13T00:21:07.624Z,958.43
2018-12-13T00:22:07.601Z,958.42
2018-12-13T00:23:07.581Z,958.35
2018-12-13T00:24:07.563Z,958.35
2018-12-13T00:25:07.543Z,958.35
2018-12-13T00:26:07.520Z,958.32
2018-12-13T00:27:07.500Z,958.31
2018-12-13T00:28:07.480Z,958.28
2018-12-13T00:29:07.460Z,958.27
2018-12-13T00:30:07.439Z,958.29
2018-12-13T00:31:07.420Z,958.32
2018-12-13T00:32:07.399Z,958.28
2018-12-13T00:33:07.379Z,958.29
2018-12-13T00:34:07.358Z,958.29
2018-12-13T00:35:07.339Z,958.25
2018-12-13T00:36:07.318Z,958.27
2018-12-13T00:37:07.298Z,958.29
2018-12-13T00:38:07.278Z,958.26
2018-12-13T00:39:07.258Z,958.2
2018-12-13T00:40:07.239Z,958.27
2018-12-13T00:41:07.217Z,958.27
2018-12-13T00:42:07.197Z,958.26
2018-12-13T00:43:07.176Z,958.22
2018-12-13T00:44:07.155Z,958.23
2018-12-13T00:45:07.136Z,958.21
2018-12-13T00:46:07.127Z,958.22
2018-12-13T00:47:07.096Z,958.25
2018-12-13T00:48:07.075Z,958.25
2018-12-13T00:49:07.056Z,958.23
2018-12-13T00:50:07.035Z,958.24
2018-12-13T00:51:07.016Z,958.22
2018-12-13T00:52:06.996Z,958.23
2018-12-13T00:53:06.977Z,958.23
2018-12-13T00:54:06.960Z,958.23
2018-12-13T00:55:06.940Z,958.24
2018-12-13T00:56:06.917Z,958.23
2018-12-13T00:57:06.896Z,958.26
2018-12-13T00:58:06.877Z,958.21
2018-12-13T00:59:06.856Z,958.27
2018-12-13T01:00:06.835Z,958.22
2018-12-13T01:01:06.815Z,958.23
2018-12-13T01:02:06.794Z,958.19
2018-12-13T01:03:06.775Z,958.23
2018-12-13T01:04:06.756Z,958.18
2018-12-13T01:05:06.734Z,958.23
2018-12-13T01:06:06.713Z,958.22
2018-12-13T01:07:06.693Z,958.19
2018-12-13T01:08:06.673Z,958.14
2018-12-13T01:09:06.653Z,958.18
2018-12-13T01:10:06.632Z,958.17
2018-12-13T01:11:06.612Z,958.15
2018-12-13T01:12:06.591Z,958.14
2018-12-13T01:13:06.572Z,958.18
2018-12-13T01:14:06.550Z,958.17
2018-12-13T01:15:06.529Z,958.21
2018-12-13T01:16:06.508Z,958.15
2018-12-13T01:17:06.487Z,958.16
2018-12-13T01:18:06.467Z,958.22
2018-12-13T01:19:06.451Z,958.24
2018-12-13T01:20:06.427Z,958.22
2018-12-13T01:21:06.406Z,958.23
2018-12-13T01:22:06.384Z,958.22
2018-12-13T01:23:06.364Z,958.16
2018-12-13T01:24:06.342Z,958.15
2018-12-13T01:25:06.321Z,958.15
2018-12-13T01:26:06.302Z,958.1
2018-12-13T01:27:06.280Z,958.1
2018-12-13T01:28:06.258Z,958.12
2018-12-13T01:29:06.244Z,958.11
2018-12-13T01:30:06.217Z,958.09
2018-12-13T01:31:06.197Z,958.12
2018-12-13T01:32:06.176Z,958.15
2018-12-13T01:33:06.155Z,958.11
2018-12-13T01:34:06.133Z,958.13
2018-12-13T01:35:06.112Z,958.12
2018-12-13T01:36:06.091Z,958.1
2018-12-13T01:37:06.070Z,958.12
2018-12-13T01:38:06.050Z,958.05
2018-12-13T01:39:06.028Z,958.09
2018-12-13T01:40:06.006Z,958.04
2018-12-13T01:41:05.988Z,958.07
2018-12-13T01:42:05.966Z,958.04
2018-12-13T01:43:05.943Z,958.03
2018-12-13T01:44:05.923Z,958.02
2018-12-13T01:45:05.902Z,957.99
2018-12-13T01:46:05.880Z,957.99
2018-12-13T01:47:05.859Z,957.98
2018-12-13T01:48:05.888Z,957.98
2018-12-13T01:49:05.816Z,957.94
2018-12-13T01:50:05.795Z,957.91
2018-12-13T01:51:05.775Z,957.97
2018-12-13T01:52:05.753Z,957.95
2018-12-13T01:53:05.731Z,957.92
2018-12-13T01:54:05.709Z,957.96
2018-12-13T01:55:05.689Z,957.95
2018-12-13T01:56:05.667Z,957.95
2018-12-13T01:57:05.649Z,957.94
2018-12-13T01:58:05.628Z,957.93
2018-12-13T01:59:05.603Z,957.95
2018-12-13T02:00:05.584Z,957.92
2018-12-13T02:01:05.561Z,957.87
2018-12-13T02:02:05.541Z,957.89
2018-12-13T02:03:05.520Z,957.92
2018-12-13T02:04:05.499Z,957.9
2018-12-13T02:05:05.476Z,957.91
2018-12-13T02:06:05.454Z,957.87
2018-12-13T02:07:05.434Z,957.91
2018-12-13T02:08:05.412Z,957.84
2018-12-13T02:09:05.391Z,957.89
2018-12-13T02:10:05.373Z,957.86
2018-12-13T02:11:05.348Z,957.91
2018-12-13T02:12:05.326Z,957.91
2018-12-13T02:13:05.306Z,957.89
2018-12-13T02:14:05.284Z,957.88
2018-12-13T02:15:05.269Z,957.88
2018-12-13T02:16:05.243Z,957.88
2018-12-13T02:17:05.219Z,957.87
2018-12-13T02:18:05.199Z,957.82
2018-12-13T02:19:05.176Z,957.82
2018-12-13T02:20:05.157Z,957.79
2018-12-13T02:21:05.134Z,957.76
2018-12-13T02:22:05.113Z,957.79
2018-12-13T02:23:05.091Z,957.74
2018-12-13T02:24:05.072Z,957.81
2018-12-13T02:25:05.050Z,957.76
2018-12-13T02:26:05.027Z,957.79
2018-12-13T02:27:05.005Z,957.76
2018-12-13T02:28:04.985Z,957.77
2018-12-13T02:29:04.964Z,957.71
2018-12-13T02:30:04.942Z,957.76
2018-12-13T02:31:04.920Z,957.74
2018-12-13T02:32:04.902Z,957.71
2018-12-13T02:33:04.877Z,957.72
2018-12-13T02:34:04.854Z,957.65
2018-12-13T02:35:04.833Z,957.64
2018-12-13T02:36:04.812Z,957.64
2018-12-13T02:37:06.132Z,957.73
2018-12-13T02:38:04.770Z,957.73
2018-12-13T02:39:04.747Z,957.7
2018-12-13T02:40:04.725Z,957.77
2018-12-13T02:41:04.704Z,957.76
2018-12-13T02:42:04.682Z,957.8
2018-12-13T02:43:04.663Z,957.78
2018-12-13T02:44:04.639Z,957.79
2018-12-13T02:45:04.627Z,957.78
2018-12-13T02:46:04.596Z,957.79
2018-12-13T02:47:04.573Z,957.77
2018-12-13T02:48:04.552Z,957.79
2018-12-13T02:49:04.530Z,957.8
2018-12-13T02:50:04.509Z,957.76
2018-12-13T02:51:04.488Z,957.75
2018-12-13T02:52:04.464Z,957.73
2018-12-13T02:53:04.445Z,957.74
2018-12-13T02:54:04.422Z,957.73
2018-12-13T02:55:04.401Z,957.73
2018-12-13T02:56:04.379Z,957.72
2018-12-13T02:57:04.356Z,957.73
2018-12-13T02:58:04.338Z,957.67
2018-12-13T02:59:04.312Z,957.71
2018-12-13T03:00:04.290Z,957.66
2018-12-13T03:01:04.270Z,957.65
2018-12-13T03:02:04.248Z,957.65
2018-12-13T03:03:04.225Z,957.62
2018-12-13T03:04:04.205Z,957.64
2018-12-13T03:05:04.183Z,957.64
2018-12-13T03:06:04.161Z,957.58
2018-12-13T03:07:04.137Z,957.61
2018-12-13T03:08:04.120Z,957.64
2018-12-13T03:09:04.095Z,957.6
2018-12-13T03:10:04.073Z,957.6
2018-12-13T03:11:04.052Z,957.58
2018-12-13T03:12:04.030Z,957.59
2018-12-13T03:13:04.008Z,957.61
2018-12-13T03:14:03.986Z,957.59
2018-12-13T03:15:03.965Z,957.6
2018-12-13T03:16:03.943Z,957.56
2018-12-13T03:17:03.921Z,957.56
2018-12-13T03:18:03.929Z,957.55
2018-12-13T03:19:03.876Z,957.57
2018-12-13T03:20:03.860Z,957.57
2018-12-13T03:21:03.834Z,957.56
2018-12-13T03:22:03.811Z,957.54
2018-12-13T03:23:03.790Z,957.58
2018-12-13T03:24:03.768Z,957.55
2018-12-13T03:25:03.746Z,957.57
2018-12-13T03:26:03.723Z,957.54
2018-12-13T03:27:03.703Z,957.55
2018-12-13T03:28:03.681Z,957.51
2018-12-13T03:29:03.663Z,957.52
2018-12-13T03:30:03.650Z,957.53
2018-12-13T03:31:03.616Z,957.47
2018-12-13T03:32:03.593Z,957.49
2018-12-13T03:33:03.571Z,957.51
2018-12-13T03:34:03.546Z,957.44
2018-12-13T03:35:03.527Z,957.46
2018-12-13T03:36:03.503Z,957.47
2018-12-13T03:37:03.481Z,957.48
2018-12-13T03:38:03.460Z,957.44
2018-12-13T03:39:03.438Z,957.45
2018-12-13T03:40:03.415Z,957.43
2018-12-13T03:41:03.393Z,957.45
2018-12-13T03:42:03.373Z,957.43
2018-12-13T03:43:03.350Z,957.41
2018-12-13T03:44:03.328Z,957.36
2018-12-13T03:45:03.305Z,957.38
2018-12-13T03:46:03.283Z,957.36
2018-12-13T03:47:03.260Z,957.32
2018-12-13T03:48:03.240Z,957.3
2018-12-13T03:49:03.219Z,957.35
2018-12-13T03:50:03.195Z,957.32
2018-12-13T03:51:03.174Z,957.32
2018-12-13T03:52:03.150Z,957.33
2018-12-13T03:53:03.128Z,957.28
2018-12-13T03:54:03.115Z,957.25
2018-12-13T03:55:03.085Z,957.23
2018-12-13T03:56:03.062Z,957.22
2018-12-13T03:57:03.119Z,957.25
2018-12-13T03:58:03.017Z,957.25
2018-12-13T03:59:02.997Z,957.25
2018-12-13T04:00:02.973Z,957.24
2018-12-13T04:01:02.952Z,957.23
2018-12-13T04:02:02.931Z,957.23
2018-12-13T04:03:02.909Z,957.23
2018-12-13T04:04:02.886Z,957.22
2018-12-13T04:05:02.863Z,957.18
2018-12-13T04:06:02.841Z,957.18
2018-12-13T04:07:02.820Z,957.18
2018-12-13T04:08:02.804Z,957.22
2018-12-13T04:09:02.776Z,957.21
2018-12-13T04:10:02.754Z,957.16
2018-12-13T04:11:02.730Z,957.16
2018-12-13T04:12:02.709Z,957.13
2018-12-13T04:13:02.685Z,957.09
2018-12-13T04:14:02.663Z,957.06
2018-12-13T04:15:02.641Z,957.03
2018-12-13T04:16:02.618Z,956.96
2018-12-13T04:17:02.596Z,957.02
2018-12-13T04:18:02.581Z,956.99
2018-12-13T04:19:02.554Z,956.96
2018-12-13T04:20:02.531Z,956.94
2018-12-13T04:21:02.510Z,956.98
2018-12-13T04:22:02.486Z,957
2018-12-13T04:23:02.467Z,957
2018-12-13T04:24:02.441Z,957.03
2018-12-13T04:25:02.419Z,957.09
2018-12-13T04:26:02.397Z,957.06
2018-12-13T04:27:02.374Z,957.02
2018-12-13T04:28:02.352Z,957.02
2018-12-13T04:29:02.329Z,957
2018-12-13T04:30:02.307Z,957.04
2018-12-13T04:31:02.285Z,957.01
2018-12-13T04:32:02.263Z,957.1
2018-12-13T04:33:02.240Z,957.06
2018-12-13T04:34:02.230Z,957.07
2018-12-13T04:35:02.197Z,957.05
2018-12-13T04:36:02.174Z,957.06
2018-12-13T04:37:02.150Z,957.02
2018-12-13T04:38:02.127Z,957
2018-12-13T04:39:02.108Z,957.04
2018-12-13T04:40:02.112Z,957
2018-12-13T04:41:02.063Z,956.99
2018-12-13T04:42:02.039Z,957
2018-12-13T04:43:02.017Z,957
2018-12-13T04:44:01.994Z,957
2018-12-13T04:45:01.990Z,956.99
2018-12-13T04:46:01.950Z,957
2018-12-13T04:47:01.928Z,957.02
2018-12-13T04:48:01.911Z,956.99
2018-12-13T04:49:01.883Z,957.02
2018-12-13T04:50:01.862Z,957
2018-12-13T04:51:01.838Z,956.99
2018-12-13T04:52:01.820Z,956.97
2018-12-13T04:53:01.793Z,957.01
2018-12-13T04:54:01.773Z,956.97
2018-12-13T04:55:01.748Z,956.96
2018-12-13T04:56:01.726Z,956.96
2018-12-13T04:57:01.704Z,956.92
2018-12-13T04:58:01.681Z,956.86
2018-12-13T04:59:01.660Z,956.89
2018-12-13T05:00:01.636Z,956.87
2018-12-13T05:01:01.616Z,956.91
2018-12-13T05:02:01.595Z,956.9
2018-12-13T05:03:01.571Z,956.86
2018-12-13T05:04:01.547Z,956.87
2018-12-13T05:05:01.525Z,956.82
2018-12-13T05:06:01.502Z,956.86
2018-12-13T05:07:01.479Z,956.86
2018-12-13T05:08:01.458Z,956.9
2018-12-13T05:09:01.435Z,956.89
2018-12-13T05:10:01.413Z,956.9
2018-12-13T05:11:01.388Z,956.88
2018-12-13T05:12:01.367Z,956.9
2018-12-13T05:13:01.344Z,956.86
2018-12-13T05:14:01.323Z,956.85
2018-12-13T05:15:01.299Z,956.85
2018-12-13T05:16:01.277Z,956.88
2018-12-13T05:17:01.257Z,956.88
2018-12-13T05:18:01.231Z,956.91
2018-12-13T05:19:01.209Z,956.9
2018-12-13T05:20:01.188Z,956.93
2018-12-13T05:21:01.165Z,956.86
2018-12-13T05:22:01.142Z,956.9
2018-12-13T05:23:01.119Z,956.86
2018-12-13T05:24:01.100Z,956.86
2018-12-13T05:25:01.076Z,956.86
2018-12-13T05:26:01.053Z,956.87
2018-12-13T05:27:01.030Z,956.88
2018-12-13T05:28:01.008Z,956.92
2018-12-13T05:29:00.984Z,956.95
2018-12-13T05:30:00.961Z,956.95
2018-12-13T05:31:00.940Z,956.95
2018-12-13T05:32:00.919Z,956.97
2018-12-13T05:33:00.893Z,956.95
2018-12-13T05:34:00.877Z,956.93
2018-12-13T05:35:00.849Z,956.97
2018-12-13T05:36:00.828Z,956.92
2018-12-13T05:37:00.810Z,956.95
2018-12-13T05:38:00.782Z,956.93
2018-12-13T05:39:00.761Z,956.93
2018-12-13T05:40:00.739Z,956.98
2018-12-13T05:41:00.714Z,956.94
2018-12-13T05:42:00.696Z,956.91
2018-12-13T05:43:00.671Z,956.88
2018-12-13T05:44:00.649Z,956.94
2018-12-13T05:45:00.625Z,956.93
2018-12-13T05:46:00.603Z,956.9
2018-12-13T05:47:00.580Z,956.93
2018-12-13T05:48:00.558Z,956.92
2018-12-13T05:49:00.535Z,956.91
2018-12-13T05:50:00.513Z,956.93
2018-12-13T05:51:00.489Z,956.89
2018-12-13T05:52:00.508Z,956.92
2018-12-13T05:53:00.444Z,956.9
2018-12-13T05:54:00.422Z,956.95
2018-12-13T05:55:00.399Z,956.94
2018-12-13T05:56:00.377Z,956.96
2018-12-13T05:57:00.383Z,956.92
2018-12-13T05:58:00.331Z,956.9
2018-12-13T05:59:00.308Z,956.94
2018-12-13T06:00:00.286Z,956.95
2018-12-13T06:01:00.264Z,956.95
2018-12-13T06:02:00.240Z,956.95
2018-12-13T06:03:00.218Z,956.93
2018-12-13T06:04:00.196Z,956.96
2018-12-13T06:05:00.174Z,956.94
2018-12-13T06:06:00.150Z,956.96
2018-12-13T06:07:00.128Z,957.02
2018-12-13T06:08:00.105Z,956.97
2018-12-13T06:09:00.081Z,957
2018-12-13T06:10:00.060Z,957.04
2018-12-13T06:11:00.038Z,957.02
2018-12-13T06:12:00.015Z,956.99
2018-12-13T06:12:59.991Z,956.98
2018-12-13T06:13:59.973Z,957
2018-12-13T06:14:59.946Z,956.99
2018-12-13T06:15:59.926Z,957
2018-12-13T06:16:59.899Z,956.96
2018-12-13T06:17:59.877Z,957.03
2018-12-13T06:18:59.854Z,957.05
2018-12-13T06:19:59.831Z,957.04
2018-12-13T06:20:59.812Z,957.03
2018-12-13T06:21:59.786Z,957.05
2018-12-13T06:22:59.774Z,957
2018-12-13T06:23:59.741Z,957.03
2018-12-13T06:24:59.718Z,957.04
2018-12-13T06:25:59.696Z,956.98
2018-12-13T06:26:59.674Z,956.99
2018-12-13T06:27:59.649Z,957.03
2018-12-13T06:28:59.627Z,957.05
2018-12-13T06:29:59.606Z,957.02
2018-12-13T06:30:59.582Z,957
2018-12-13T06:31:59.560Z,957.03
2018-12-13T06:32:59.536Z,957.01
2018-12-13T06:33:59.513Z,957.05
2018-12-13T06:34:59.490Z,957.02
2018-12-13T06:35:59.467Z,957.04
2018-12-13T06:36:59.445Z,957.02
2018-12-13T06:38:01.335Z,957.05
2018-12-13T06:38:59.399Z,957.08
2018-12-13T06:39:59.377Z,957.04
2018-12-13T06:40:59.354Z,957.07
2018-12-13T06:41:59.331Z,957.08
2018-12-13T06:42:59.310Z,957.08
2018-12-13T06:43:59.287Z,957.06
2018-12-13T06:44:59.263Z,957.1
2018-12-13T06:45:59.239Z,957.12
2018-12-13T06:46:59.217Z,957.14
2018-12-13T06:47:59.194Z,957.06
2018-12-13T06:48:59.172Z,957.1
2018-12-13T06:49:59.153Z,957.08
2018-12-13T06:50:59.125Z,957.07
2018-12-13T06:51:59.103Z,957.05
2018-12-13T06:52:59.080Z,957.09
2018-12-13T06:53:59.058Z,957.07
2018-12-13T06:54:59.034Z,957.04
2018-12-13T06:55:59.013Z,957.04
2018-12-13T06:56:58.990Z,957.07
2018-12-13T06:57:58.967Z,957.11
2018-12-13T06:58:58.944Z,957.12
2018-12-13T06:59:58.921Z,957.13
2018-12-13T07:00:58.898Z,957.1
2018-12-13T07:01:58.876Z,957.15
2018-12-13T07:02:58.853Z,957.13
2018-12-13T07:03:58.828Z,957.11
2018-12-13T07:04:58.806Z,957.08
2018-12-13T07:05:58.785Z,957.08
2018-12-13T07:06:58.762Z,957.12
2018-12-13T07:07:58.738Z,957.14
2018-12-13T07:08:58.715Z,957.08
2018-12-13T07:09:58.695Z,957.12
2018-12-13T07:10:58.670Z,957.14
2018-12-13T07:11:58.648Z,957.12
2018-12-13T07:12:58.627Z,957.1
2018-12-13T07:13:58.603Z,957.11
2018-12-13T07:14:58.578Z,957.09
2018-12-13T07:15:58.562Z,957.09
2018-12-13T07:16:58.535Z,957.08
2018-12-13T07:17:58.512Z,957.11
2018-12-13T07:18:58.487Z,957.1
2018-12-13T07:19:58.465Z,957.1
2018-12-13T07:20:58.446Z,957.12
2018-12-13T07:21:58.419Z,957.12
2018-12-13T07:22:58.398Z,957.08
2018-12-13T07:23:58.377Z,957.04
2018-12-13T07:24:58.352Z,957.02
2018-12-13T07:25:58.327Z,957.05
2018-12-13T07:26:58.306Z,957.1
2018-12-13T07:27:58.282Z,957.03
2018-12-13T07:28:58.262Z,957.05
2018-12-13T07:29:58.240Z,957.06
2018-12-13T07:30:58.218Z,957.05
2018-12-13T07:31:58.191Z,957.04
2018-12-13T07:32:58.169Z,957.06
2018-12-13T07:33:58.146Z,957.06
2018-12-13T07:35:01.232Z,957.05
2018-12-13T07:35:58.101Z,957.04
2018-12-13T07:36:58.076Z,957
2018-12-13T07:37:58.053Z,957
2018-12-13T07:38:58.110Z,957.02
2018-12-13T07:39:58.012Z,956.98
2018-12-13T07:40:57.986Z,956.99
2018-12-13T07:41:57.964Z,956.98
2018-12-13T07:42:57.940Z,957.02
2018-12-13T07:43:57.916Z,957.04
2018-12-13T07:44:57.894Z,956.99
2018-12-13T07:45:57.873Z,957.02
2018-12-13T07:46:57.851Z,957.01
2018-12-13T07:47:57.827Z,957.03
2018-12-13T07:48:57.806Z,957.02
2018-12-13T07:49:57.780Z,957
2018-12-13T07:50:57.759Z,957.01
2018-12-13T07:51:57.735Z,957.01
2018-12-13T07:52:57.713Z,957.02
2018-12-13T07:53:57.690Z,957.03
2018-12-13T07:54:57.668Z,957.04
2018-12-13T07:55:57.643Z,957.01
2018-12-13T07:56:57.622Z,957.01
2018-12-13T07:57:57.601Z,957.03
2018-12-13T07:58:57.576Z,957.04
2018-12-13T07:59:57.553Z,957.02
2018-12-13T08:00:57.530Z,957.06
2018-12-13T08:01:57.509Z,957.01
2018-12-13T08:02:57.485Z,956.99
2018-12-13T08:03:57.463Z,957.01
2018-12-13T08:04:57.439Z,956.96
2018-12-13T08:05:57.416Z,956.99
2018-12-13T08:06:57.393Z,956.95
2018-12-13T08:07:57.373Z,957.01
2018-12-13T08:08:57.349Z,957
2018-12-13T08:09:57.328Z,956.97
2018-12-13T08:10:57.304Z,956.96
2018-12-13T08:11:57.278Z,956.99
2018-12-13T08:12:57.258Z,956.92
2018-12-13T08:13:57.234Z,956.92
2018-12-13T08:14:57.211Z,956.91
2018-12-13T08:15:57.189Z,956.93
2018-12-13T08:16:57.164Z,956.93
2018-12-13T08:17:57.145Z,956.91
2018-12-13T08:18:57.120Z,956.88
2018-12-13T08:19:57.097Z,956.88
2018-12-13T08:20:57.075Z,956.88
2018-12-13T08:21:57.053Z,956.91
2018-12-13T08:22:57.033Z,956.87
2018-12-13T08:23:57.006Z,956.87
2018-12-13T08:24:56.984Z,956.87
2018-12-13T08:25:56.963Z,956.91
2018-12-13T08:26:56.940Z,956.84
2018-12-13T08:27:56.916Z,956.88
2018-12-13T08:28:56.894Z,956.85
2018-12-13T08:29:56.872Z,956.86
2018-12-13T08:30:56.850Z,956.88
2018-12-13T08:31:56.827Z,956.85
2018-12-13T08:32:56.807Z,956.84
2018-12-13T08:33:56.782Z,956.86
2018-12-13T08:34:56.760Z,956.88
2018-12-13T08:35:56.736Z,956.87
2018-12-13T08:36:56.715Z,956.88
2018-12-13T08:37:56.695Z,956.89
2018-12-13T08:38:56.668Z,956.85
2018-12-13T08:39:56.650Z,956.85
2018-12-13T08:40:56.625Z,956.83
2018-12-13T08:41:56.603Z,956.8
2018-12-13T08:42:56.581Z,956.76
2018-12-13T08:43:56.558Z,956.78
2018-12-13T08:44:56.535Z,956.81
2018-12-13T08:45:56.514Z,956.83
2018-12-13T08:46:56.490Z,956.77
2018-12-13T08:47:56.470Z,956.74
2018-12-13T08:48:56.451Z,956.8
2018-12-13T08:49:56.423Z,956.76
2018-12-13T08:50:56.402Z,956.79
2018-12-13T08:51:56.378Z,956.79
2018-12-13T08:52:56.356Z,956.78
2018-12-13T08:53:56.334Z,956.81
2018-12-13T08:54:56.311Z,956.75
2018-12-13T08:55:56.290Z,956.8
2018-12-13T08:56:56.266Z,956.78
2018-12-13T08:57:56.244Z,956.78
2018-12-13T08:58:56.224Z,956.78
2018-12-13T08:59:56.200Z,956.83
2018-12-13T09:00:56.179Z,956.8
2018-12-13T09:01:56.155Z,956.8
2018-12-13T09:02:56.137Z,956.78
2018-12-13T09:03:56.113Z,956.81
2018-12-13T09:04:56.089Z,956.77
2018-12-13T09:05:56.068Z,956.81
2018-12-13T09:06:57.014Z,956.8
2018-12-13T09:07:56.072Z,956.78
2018-12-13T09:08:56.054Z,956.79
2018-12-13T09:09:55.978Z,956.81
2018-12-13T09:10:55.957Z,956.77
2018-12-13T09:11:55.933Z,956.69
2018-12-13T09:12:55.911Z,956.67
2018-12-13T09:13:55.889Z,956.7
2018-12-13T09:14:55.867Z,956.67
2018-12-13T09:15:55.844Z,956.67
2018-12-13T09:16:55.821Z,956.64
2018-12-13T09:17:55.800Z,956.61
2018-12-13T09:18:55.777Z,956.61
2018-12-13T09:19:55.755Z,956.6
2018-12-13T09:20:55.734Z,956.62
2018-12-13T09:21:55.712Z,956.59
2018-12-13T09:22:55.689Z,956.61
2018-12-13T09:23:55.668Z,956.59
2018-12-13T09:24:55.645Z,956.63
2018-12-13T09:25:55.623Z,956.61
2018-12-13T09:26:55.602Z,956.59
2018-12-13T09:27:55.579Z,956.59
2018-12-13T09:28:55.557Z,956.61
2018-12-13T09:29:55.533Z,956.57
2018-12-13T09:30:55.514Z,956.58
2018-12-13T09:31:55.490Z,956.61
2018-12-13T09:32:55.470Z,956.63
2018-12-13T09:33:55.447Z,956.61
2018-12-13T09:34:55.424Z,956.61
2018-12-13T09:35:55.404Z,956.58
2018-12-13T09:36:55.382Z,956.6
2018-12-13T09:37:55.359Z,956.58
2018-12-13T09:38:55.338Z,956.59
2018-12-13T09:39:55.318Z,956.61
2018-12-13T09:40:55.293Z,956.58
2018-12-13T09:41:55.271Z,956.6
2018-12-13T09:42:55.253Z,956.6
2018-12-13T09:43:55.228Z,956.59
2018-12-13T09:44:55.206Z,956.59
2018-12-13T09:45:55.189Z,956.56
2018-12-13T09:46:55.166Z,956.59
2018-12-13T09:47:55.141Z,956.56
2018-12-13T09:48:55.119Z,956.56
2018-12-13T09:49:55.097Z,956.54
2018-12-13T09:50:55.075Z,956.57
2018-12-13T09:51:55.055Z,956.55
2018-12-13T09:52:55.035Z,956.49
2018-12-13T09:53:55.012Z,956.52
2018-12-13T09:54:54.990Z,956.52
2018-12-13T09:55:54.968Z,956.56
2018-12-13T09:56:54.946Z,956.54
2018-12-13T09:57:54.924Z,956.47
2018-12-13T09:58:54.902Z,956.48
2018-12-13T09:59:54.882Z,956.49
2018-12-13T10:00:54.860Z,956.41
2018-12-13T10:01:54.838Z,956.46
2018-12-13T10:02:54.815Z,956.38
2018-12-13T10:03:54.794Z,956.35
2018-12-13T10:04:54.848Z,956.37
2018-12-13T10:05:54.753Z,956.39
2018-12-13T10:06:54.731Z,956.31
2018-12-13T10:07:54.708Z,956.3
2018-12-13T10:08:54.687Z,956.35
2018-12-13T10:09:54.666Z,956.33
2018-12-13T10:10:54.644Z,956.3
2018-12-13T10:11:54.623Z,956.26
2018-12-13T10:12:54.602Z,956.27
2018-12-13T10:13:54.581Z,956.29
2018-12-13T10:14:54.560Z,956.3
2018-12-13T10:15:54.538Z,956.29
2018-12-13T10:16:54.518Z,956.28
2018-12-13T10:17:54.496Z,956.28
2018-12-13T10:18:54.473Z,956.28
2018-12-13T10:19:54.453Z,956.28
2018-12-13T10:20:54.432Z,956.25
2018-12-13T10:21:54.412Z,956.27
2018-12-13T10:22:54.391Z,956.28
2018-12-13T10:23:54.369Z,956.26
2018-12-13T10:24:54.348Z,956.25
2018-12-13T10:25:59.463Z,956.22
2018-12-13T10:26:54.307Z,956.22
2018-12-13T10:27:54.284Z,956.24
2018-12-13T10:28:54.263Z,956.22
2018-12-13T10:29:54.246Z,956.19
2018-12-13T10:30:54.223Z,956.2
2018-12-13T10:31:54.199Z,956.22
2018-12-13T10:32:54.180Z,956.2
2018-12-13T10:33:54.157Z,956.18
2018-12-13T10:34:54.137Z,956.19
2018-12-13T10:35:54.115Z,956.18
2018-12-13T10:36:54.096Z,956.17
2018-12-13T10:37:54.075Z,956.13
2018-12-13T10:38:54.054Z,956.11
2018-12-13T10:39:54.031Z,956.12
2018-12-13T10:40:54.012Z,956.1
2018-12-13T10:41:53.991Z,956.1
2018-12-13T10:42:53.970Z,956.05
2018-12-13T10:43:53.976Z,956.07
2018-12-13T10:44:53.928Z,956.1
2018-12-13T10:45:53.907Z,956.09
2018-12-13T10:46:54.199Z,956.13
2018-12-13T10:47:53.866Z,956.12
2018-12-13T10:48:53.847Z,956.11
2018-12-13T10:49:53.825Z,956.11
2018-12-13T10:50:53.803Z,956.13
2018-12-13T10:51:53.783Z,956.12
2018-12-13T10:52:53.762Z,956.13
2018-12-13T10:53:53.740Z,956.15
2018-12-13T10:54:53.721Z,956.17
2018-12-13T10:55:53.700Z,956.16
2018-12-13T10:56:53.681Z,956.19
2018-12-13T10:57:53.657Z,956.16
2018-12-13T10:58:53.639Z,956.22
2018-12-13T10:59:53.617Z,956.17
2018-12-13T11:00:53.596Z,956.18
2018-12-13T11:01:53.574Z,956.12
2018-12-13T11:02:53.555Z,956.11
2018-12-13T11:03:53.535Z,956.13
2018-12-13T11:04:53.513Z,956.1
2018-12-13T11:05:53.493Z,956.04
2018-12-13T11:06:53.474Z,956.11
2018-12-13T11:07:53.452Z,956.09
2018-12-13T11:08:59.199Z,956.11
2018-12-13T11:09:53.411Z,956.16
2018-12-13T11:10:53.390Z,956.16
2018-12-13T11:11:53.370Z,956.14
2018-12-13T11:12:53.355Z,956.17
2018-12-13T11:13:53.336Z,956.15
2018-12-13T11:14:53.311Z,956.16
2018-12-13T11:15:53.289Z,956.13
2018-12-13T11:16:53.267Z,956.17
2018-12-13T11:17:53.248Z,956.15
2018-12-13T11:18:53.229Z,956.11
2018-12-13T11:19:53.211Z,956.15
2018-12-13T11:20:53.188Z,956.09
2018-12-13T11:21:53.172Z,956.12
2018-12-13T11:22:53.148Z,956.08
2018-12-13T11:23:53.130Z,956.05
2018-12-13T11:24:53.109Z,956.03
2018-12-13T11:25:53.092Z,956.03
2018-12-13T11:26:53.069Z,956.03
2018-12-13T11:27:53.050Z,956.05
2018-12-13T11:28:53.032Z,956
2018-12-13T11:29:53.012Z,956
2018-12-13T11:30:52.994Z,956
2018-12-13T11:31:52.978Z,955.96
2018-12-13T11:32:52.956Z,955.95
2018-12-13T11:33:52.936Z,955.97
2018-12-13T11:34:52.919Z,955.97
2018-12-13T11:35:52.897Z,955.89
2018-12-13T11:36:52.878Z,955.97
2018-12-13T11:37:52.859Z,955.94
2018-12-13T11:38:52.842Z,955.97
2018-12-13T11:39:52.821Z,955.99
2018-12-13T11:40:52.802Z,955.93
2018-12-13T11:41:52.782Z,955.92
2018-12-13T11:42:52.763Z,955.94
2018-12-13T11:43:52.744Z,955.93
2018-12-13T11:44:52.735Z,955.97
2018-12-13T11:45:52.705Z,955.94
2018-12-13T11:46:52.686Z,955.94
2018-12-13T11:47:52.666Z,955.97
2018-12-13T11:48:52.646Z,955.97
2018-12-13T11:49:52.628Z,955.92
2018-12-13T11:50:52.611Z,955.92
2018-12-13T11:51:52.592Z,955.9
2018-12-13T11:52:52.569Z,955.89
2018-12-13T11:53:52.549Z,955.91
2018-12-13T11:54:52.532Z,955.88
2018-12-13T11:55:52.512Z,955.84
2018-12-13T11:56:52.493Z,955.83
2018-12-13T11:57:52.474Z,955.85
2018-12-13T11:58:52.459Z,955.83
2018-12-13T11:59:52.436Z,955.8
2018-12-13T12:00:52.415Z,955.86
2018-12-13T12:01:52.397Z,955.85
2018-12-13T12:02:52.380Z,955.85
2018-12-13T12:03:52.358Z,955.81
2018-12-13T12:04:52.339Z,955.8
2018-12-13T12:05:52.320Z,955.83
2018-12-13T12:06:52.299Z,955.79
2018-12-13T12:07:52.281Z,955.8
2018-12-13T12:08:52.262Z,955.79
2018-12-13T12:09:52.243Z,955.78
2018-12-13T12:10:52.223Z,955.78
2018-12-13T12:11:52.204Z,955.7
2018-12-13T12:12:52.185Z,955.73
2018-12-13T12:13:52.166Z,955.72
2018-12-13T12:14:52.145Z,955.68
2018-12-13T12:15:52.127Z,955.67
2018-12-13T12:16:52.108Z,955.65
2018-12-13T12:17:52.089Z,955.64
2018-12-13T12:18:52.068Z,955.63
2018-12-13T12:19:52.051Z,955.65
2018-12-13T12:20:52.031Z,955.61
2018-12-13T12:21:52.011Z,955.63
2018-12-13T12:22:51.994Z,955.63
2018-12-13T12:23:51.973Z,955.62
2018-12-13T12:24:51.954Z,955.62
2018-12-13T12:25:51.933Z,955.59
2018-12-13T12:26:51.915Z,955.59
2018-12-13T12:27:51.895Z,955.6
2018-12-13T12:28:51.875Z,955.61
2018-12-13T12:29:51.859Z,955.59
2018-12-13T12:30:51.837Z,955.63
2018-12-13T12:31:51.818Z,955.64